createdAt,value
2018-11-20T00:01:41.308Z,28.60
2018-11-20T00:04:07.536Z,28.50
2018-11-20T00:06:33.761Z,28.60
2018-11-20T00:08:59.903Z,28.60
2018-11-20T00:11:26.222Z,28.50
2018-11-20T00:13:52.452Z,28.50
2018-11-20T00:16:18.670Z,28.40
2018-11-20T00:18:44.914Z,28.40
2018-11-20T00:21:11.134Z,28.40
2018-11-20T00:23:37.358Z,28.30
2018-11-20T00:26:03.585Z,28.40
2018-11-20T00:28:29.740Z,28.30
2018-11-20T00:30:56.051Z,28.30
2018-11-20T00:33:22.198Z,28.30
2018-11-20T00:35:48.358Z,28.20
2018-11-20T00:38:14.523Z,28.10
2018-11-20T00:40:40.754Z,28.20
2018-11-20T00:43:06.898Z,28.00
2018-11-20T00:45:33.205Z,28.00
2018-11-20T00:47:59.434Z,28.00
2018-11-20T00:50:25.637Z,28.00
2018-11-20T00:52:51.891Z,27.90
2018-11-20T00:55:18.122Z,28.00
2018-11-20T00:57:44.358Z,28.00
2018-11-20T01:00:10.587Z,28.00
2018-11-20T01:02:36.732Z,28.00
2018-11-20T01:05:04.221Z,28.40
2018-11-20T01:07:31.134Z,28.40
2018-11-20T01:09:57.331Z,27.90
2018-11-20T01:12:23.562Z,27.90
2018-11-20T01:14:49.708Z,27.80
2018-11-20T01:17:15.860Z,27.80
2018-11-20T01:19:42.047Z,27.80
2018-11-20T01:22:08.274Z,27.80
2018-11-20T01:24:34.505Z,27.80
2018-11-20T01:27:00.722Z,27.80
2018-11-20T01:29:26.956Z,27.90
2018-11-20T01:31:53.181Z,27.80
2018-11-20T01:34:19.414Z,27.70
2018-11-20T01:36:45.558Z,27.70
2018-11-20T01:39:11.869Z,27.60
2018-11-20T01:41:38.034Z,27.60
2018-11-20T01:44:04.330Z,27.60
2018-11-20T01:46:30.550Z,28.20
2018-11-20T01:48:56.689Z,27.70
2018-11-20T01:51:23.046Z,27.70
2018-11-20T01:53:49.236Z,27.70
2018-11-20T01:56:15.383Z,27.70
2018-11-20T01:58:41.698Z,27.60
2018-11-20T02:01:07.846Z,27.60
2018-11-20T02:03:34.156Z,27.60
2018-11-20T02:06:00.308Z,27.70
2018-11-20T02:08:26.601Z,27.70
2018-11-20T02:10:52.830Z,27.70
2018-11-20T02:13:19.014Z,27.70
2018-11-20T02:15:45.159Z,27.60
2018-11-20T02:18:11.520Z,27.60
2018-11-20T02:20:37.657Z,27.60
2018-11-20T02:23:03.801Z,27.60
2018-11-20T02:25:29.950Z,27.60
2018-11-20T02:27:56.225Z,27.60
2018-11-20T02:30:22.370Z,27.80
2018-11-20T02:32:48.524Z,27.50
2018-11-20T02:35:14.672Z,27.60
2018-11-20T02:37:41.754Z,27.60
2018-11-20T02:40:07.989Z,27.60
2018-11-20T02:42:34.142Z,27.50
2018-11-20T02:45:00.290Z,27.50
2018-11-20T02:47:27.423Z,27.50
2018-11-20T02:49:53.718Z,27.50
2018-11-20T02:52:19.866Z,27.60
2018-11-20T02:54:46.169Z,27.60
2018-11-20T02:57:12.406Z,27.60
2018-11-20T02:59:38.622Z,27.60
2018-11-20T03:02:04.853Z,27.60
2018-11-20T03:04:30.997Z,27.60
2018-11-20T03:06:57.314Z,27.60
2018-11-20T03:09:23.478Z,27.60
2018-11-20T03:11:49.779Z,27.60
2018-11-20T03:14:15.997Z,27.50
2018-11-20T03:16:42.223Z,27.60
2018-11-20T03:19:08.466Z,27.50
2018-11-20T03:21:34.625Z,27.50
2018-11-20T03:24:00.771Z,27.50
2018-11-20T03:26:27.134Z,27.50
2018-11-20T03:28:53.278Z,27.50
2018-11-20T03:31:19.602Z,27.50
2018-11-20T03:33:45.830Z,27.40
2018-11-20T03:36:12.131Z,27.50
2018-11-20T03:38:38.483Z,27.40
2018-11-20T03:41:04.718Z,27.50
2018-11-20T03:43:30.954Z,27.60
2018-11-20T03:45:57.165Z,27.60
2018-11-20T03:48:23.394Z,27.60
2018-11-20T03:50:49.631Z,27.60
2018-11-20T03:53:15.778Z,27.60
2018-11-20T03:55:42.082Z,27.60
2018-11-20T03:58:08.306Z,27.60
2018-11-20T04:00:34.459Z,27.60
2018-11-20T04:03:00.762Z,27.60
2018-11-20T04:05:26.990Z,27.60
2018-11-20T04:07:53.228Z,27.60
2018-11-20T04:10:19.447Z,27.50
2018-11-20T04:12:45.598Z,27.60
2018-11-20T04:15:11.906Z,27.50
2018-11-20T04:17:38.146Z,27.50
2018-11-20T04:20:04.370Z,27.50
2018-11-20T04:22:30.587Z,27.50
2018-11-20T04:24:56.818Z,27.60
2018-11-20T04:27:22.978Z,27.60
2018-11-20T04:29:49.122Z,27.60
2018-11-20T04:32:15.300Z,27.50
2018-11-20T04:34:41.526Z,27.60
2018-11-20T04:37:07.755Z,28.00
2018-11-20T04:39:33.898Z,27.60
2018-11-20T04:42:02.676Z,27.60
2018-11-20T04:44:28.826Z,27.50
2018-11-20T04:46:55.128Z,27.50
2018-11-20T04:49:21.274Z,27.50
2018-11-20T04:51:47.577Z,27.60
2018-11-20T04:54:13.719Z,27.50
2018-11-20T04:56:40.040Z,27.50
2018-11-20T04:59:06.203Z,27.60
2018-11-20T05:01:32.493Z,27.50
2018-11-20T05:03:58.674Z,27.50
2018-11-20T05:06:24.823Z,27.40
2018-11-20T05:08:51.183Z,27.50
2018-11-20T05:11:17.405Z,27.50
2018-11-20T05:13:43.688Z,27.50
2018-11-20T05:16:09.800Z,27.60
2018-11-20T05:18:36.094Z,27.60
2018-11-20T05:21:02.249Z,27.60
2018-11-20T05:23:28.549Z,27.50
2018-11-20T05:25:54.696Z,27.50
2018-11-20T05:28:21.002Z,28.00
2018-11-20T05:30:47.204Z,27.60
2018-11-20T05:33:13.468Z,27.60
2018-11-20T05:35:39.694Z,27.50
2018-11-20T05:38:05.923Z,27.50
2018-11-20T05:40:32.226Z,27.60
2018-11-20T05:42:58.377Z,27.50
2018-11-20T05:45:24.522Z,27.50
2018-11-20T05:47:50.730Z,27.60
2018-11-20T05:50:16.962Z,27.50
2018-11-20T05:52:43.107Z,27.50
2018-11-20T05:55:09.437Z,27.60
2018-11-20T05:57:35.641Z,27.60
2018-11-20T06:00:01.783Z,27.60
2018-11-20T06:02:28.094Z,27.60
2018-11-20T06:04:54.321Z,27.60
2018-11-20T06:07:20.555Z,27.50
2018-11-20T06:09:46.696Z,27.50
2018-11-20T06:12:13.006Z,27.60
2018-11-20T06:14:39.234Z,27.60
2018-11-20T06:17:05.466Z,27.60
2018-11-20T06:19:31.615Z,27.60
2018-11-20T06:21:57.926Z,27.60
2018-11-20T06:24:24.065Z,27.70
2018-11-20T06:26:50.378Z,27.60
2018-11-20T06:29:16.598Z,27.70
2018-11-20T06:31:42.834Z,27.60
2018-11-20T06:34:08.985Z,27.60
2018-11-20T06:36:35.293Z,27.70
2018-11-20T06:39:01.527Z,27.60
2018-11-20T06:41:27.827Z,27.70
2018-11-20T06:43:53.978Z,27.60
2018-11-20T06:46:20.203Z,27.70
2018-11-20T06:48:46.351Z,27.60
2018-11-20T06:51:12.498Z,27.60
2018-11-20T06:53:38.827Z,27.60
2018-11-20T06:56:04.910Z,27.70
2018-11-20T06:58:31.143Z,27.60
2018-11-20T07:00:57.365Z,27.60
2018-11-20T07:03:23.510Z,27.60
2018-11-20T07:05:49.664Z,27.60
2018-11-20T07:08:15.958Z,27.60
2018-11-20T07:10:41.984Z,27.60
2018-11-20T07:13:08.134Z,27.50
2018-11-20T07:15:34.436Z,27.60
2018-11-20T07:18:00.455Z,27.60
2018-11-20T07:20:26.793Z,27.50
2018-11-20T07:22:53.018Z,27.60
2018-11-20T07:25:19.234Z,27.50
2018-11-20T07:27:45.385Z,27.50
2018-11-20T07:30:11.592Z,27.60
2018-11-20T07:32:37.925Z,27.60
2018-11-20T07:35:04.277Z,27.50
2018-11-20T07:37:30.365Z,27.60
2018-11-20T07:39:56.535Z,27.60
2018-11-20T07:42:22.835Z,27.50
2018-11-20T07:44:48.978Z,27.50
2018-11-20T07:47:15.293Z,27.60
2018-11-20T07:49:41.446Z,27.50
2018-11-20T07:52:07.754Z,27.60
2018-11-20T07:54:33.897Z,27.50
2018-11-20T07:57:00.240Z,27.50
2018-11-20T07:59:26.434Z,27.50
2018-11-20T08:01:52.579Z,27.50
2018-11-20T08:04:18.890Z,27.50
2018-11-20T08:06:45.119Z,27.50
2018-11-20T08:09:11.346Z,27.50
2018-11-20T08:11:37.490Z,27.50
2018-11-20T08:14:03.807Z,27.50
2018-11-20T08:16:29.970Z,27.50
2018-11-20T08:18:56.262Z,27.50
2018-11-20T08:21:22.405Z,27.40
2018-11-20T08:23:48.551Z,27.40
2018-11-20T08:26:14.933Z,27.40
2018-11-20T08:28:41.007Z,27.50
2018-11-20T08:31:07.223Z,27.40
2018-11-20T08:33:33.448Z,27.50
2018-11-20T08:35:59.657Z,27.50
2018-11-20T08:38:25.889Z,27.50
2018-11-20T08:40:52.043Z,27.50
2018-11-20T08:43:18.333Z,27.50
2018-11-20T08:45:44.490Z,27.40
2018-11-20T08:48:10.858Z,27.50
2018-11-20T08:50:37.018Z,27.40
2018-11-20T08:53:03.250Z,27.50
2018-11-20T08:55:29.393Z,27.40
2018-11-20T08:57:55.713Z,27.50
2018-11-20T09:00:21.933Z,27.50
2018-11-20T09:02:48.157Z,27.50
2018-11-20T09:05:14.406Z,27.50
2018-11-20T09:07:40.629Z,27.40
2018-11-20T09:10:06.908Z,27.50
2018-11-20T09:12:33.014Z,27.50
2018-11-20T09:14:59.158Z,27.50
2018-11-20T09:17:25.303Z,27.50
2018-11-20T09:19:51.459Z,27.50
2018-11-20T09:22:17.781Z,27.50
2018-11-20T09:24:44.013Z,27.50
2018-11-20T09:27:10.166Z,27.50
2018-11-20T09:29:36.331Z,27.50
2018-11-20T09:32:02.496Z,27.50
2018-11-20T09:34:28.739Z,27.50
2018-11-20T09:36:54.963Z,27.50
2018-11-20T09:39:21.175Z,27.50
2018-11-20T09:41:47.318Z,27.50
2018-11-20T09:44:13.632Z,27.60
2018-11-20T09:46:39.824Z,27.60
2018-11-20T09:49:06.094Z,27.60
2018-11-20T09:51:32.323Z,27.60
2018-11-20T09:53:58.470Z,27.60
2018-11-20T09:56:24.782Z,27.60
2018-11-20T09:58:51.007Z,27.60
2018-11-20T10:01:17.146Z,27.60
2018-11-20T10:03:43.357Z,27.60
2018-11-20T10:06:09.482Z,27.60
2018-11-20T10:08:35.652Z,27.70
2018-11-20T10:11:01.803Z,27.60
2018-11-20T10:13:28.165Z,27.70
2018-11-20T10:15:54.311Z,27.60
2018-11-20T10:18:20.619Z,27.60
2018-11-20T10:20:46.890Z,27.70
2018-11-20T10:23:13.102Z,27.60
2018-11-20T10:25:39.366Z,27.60
2018-11-20T10:28:05.486Z,27.60
2018-11-20T10:30:31.763Z,27.60
2018-11-20T10:32:57.991Z,27.70
2018-11-20T10:35:24.223Z,27.60
2018-11-20T10:37:50.447Z,27.70
2018-11-20T10:40:16.650Z,27.70
2018-11-20T10:42:42.941Z,27.70
2018-11-20T10:45:09.087Z,27.70
2018-11-20T10:47:35.357Z,27.70
2018-11-20T10:50:01.502Z,27.70
2018-11-20T10:52:27.670Z,27.70
2018-11-20T10:54:53.847Z,27.70
2018-11-20T10:57:20.012Z,27.70
2018-11-20T10:59:46.340Z,27.70
2018-11-20T11:02:12.490Z,27.70
2018-11-20T11:04:39.601Z,27.70
2018-11-20T11:07:06.016Z,27.70
2018-11-20T11:09:31.967Z,27.70
2018-11-20T11:11:58.332Z,27.70
2018-11-20T11:14:24.539Z,27.70
2018-11-20T11:16:50.650Z,27.80
2018-11-20T11:19:16.942Z,27.80
2018-11-20T11:21:43.093Z,27.80
2018-11-20T11:24:09.396Z,27.80
2018-11-20T11:26:35.628Z,27.70
2018-11-20T11:29:01.775Z,27.70
2018-11-20T11:31:28.095Z,27.70
2018-11-20T11:33:54.242Z,27.80
2018-11-20T11:36:20.562Z,27.80
2018-11-20T11:38:46.771Z,27.80
2018-11-20T11:41:12.931Z,27.70
2018-11-20T11:43:39.228Z,27.80
2018-11-20T11:46:05.451Z,27.80
2018-11-20T11:48:31.687Z,27.80
2018-11-20T11:50:57.836Z,27.80
2018-11-20T11:53:23.987Z,27.80
2018-11-20T11:55:50.171Z,27.80
2018-11-20T11:58:18.716Z,27.90
2018-11-20T12:00:42.619Z,28.30
